Time;durP1;ratioP1;P1;durP2;ratioP2;P2;SDS_P1;SDS_P2;PMS_P1;PMS_P2;Temp;Humidity;BMP_temperature;BMP_pressure;BME280_temperature;BME280_humidity;BME280_pressure;Samples;Min_cycle;Max_cycle;Signal;HPM_P1;HPM_P2
2023/07/26 00:00:21;;;;;;;7.90;4.10;;;13.00;99.90;;;;;;5040458;28;20529;-75
2023/07/26 00:02:47;;;;;;;7.10;4.43;;;13.00;99.90;;;;;;5083190;28;20423;-75
2023/07/26 00:05:12;;;;;;;9.67;4.30;;;13.20;99.90;;;;;;5041106;28;20412;-74
2023/07/26 00:07:38;;;;;;;9.50;4.80;;;13.10;99.90;;;;;;5057556;28;20449;-74
2023/07/26 00:10:04;;;;;;;7.65;4.30;;;13.30;99.90;;;;;;5074606;28;20463;-74
2023/07/26 00:12:30;;;;;;;6.57;4.43;;;13.20;99.90;;;;;;5045936;28;20432;-75
2023/07/26 00:14:56;;;;;;;9.00;4.70;;;13.40;99.90;;;;;;5055725;28;20404;-75
2023/07/26 00:17:22;;;;;;;7.57;4.67;;;;;;;;;;5048526;28;20952;-75
2023/07/26 00:19:47;;;;;;;7.35;4.40;;;13.20;99.90;;;;;;5044046;28;20423;-75
2023/07/26 00:22:13;;;;;;;6.93;4.27;;;13.30;99.90;;;;;;5054524;28;20400;-74
2023/07/26 00:24:39;;;;;;;7.23;4.40;;;13.10;99.90;;;;;;5052617;28;20487;-74
2023/07/26 00:27:05;;;;;;;5.80;4.43;;;13.30;99.90;;;;;;5050746;28;20770;-74
2023/07/26 00:29:31;;;;;;;7.68;4.80;;;;;;;;;;5055393;28;20411;-74
2023/07/26 00:31:56;;;;;;;6.95;4.35;;;13.20;99.90;;;;;;5057745;28;20453;-75
2023/07/26 00:34:22;;;;;;;7.93;4.30;;;13.20;99.90;;;;;;5055739;28;20926;-75
2023/07/26 00:36:48;;;;;;;7.90;4.03;;;13.30;99.90;;;;;;5055751;28;20454;-75
2023/07/26 00:39:14;;;;;;;6.90;4.05;;;13.30;99.90;;;;;;5057460;28;20449;-75
2023/07/26 00:41:40;;;;;;;7.45;3.95;;;13.20;99.90;;;;;;5073264;28;20418;-75
2023/07/26 00:44:06;;;;;;;6.30;4.07;;;13.20;99.90;;;;;;5054459;28;20577;-75
2023/07/26 00:46:33;;;;;;;5.75;3.90;;;13.40;99.90;;;;;;5072587;28;20423;-75
2023/07/26 00:48:59;;;;;;;9.25;4.30;;;;;;;;;;5057550;28;20431;-75
2023/07/26 00:51:26;;;;;;;6.20;4.00;;;13.50;99.90;;;;;;5049542;28;20430;-75
2023/07/26 00:53:53;;;;;;;6.80;4.32;;;13.30;99.90;;;;;;5033813;28;20427;-75
2023/07/26 00:56:18;;;;;;;6.82;4.20;;;13.20;99.90;;;;;;5037340;28;20486;-75
2023/07/26 00:58:45;;;;;;;9.27;4.30;;;13.10;99.90;;;;;;5052988;28;20513;-75
2023/07/26 01:01:10;;;;;;;6.57;4.10;;;13.10;99.90;;;;;;5061501;28;20965;-75
2023/07/26 01:03:36;;;;;;;7.55;4.65;;;13.10;99.90;;;;;;5073498;28;20413;-75
2023/07/26 01:06:40;;;;;;;6.50;4.13;;;13.00;99.90;;;;;;5071938;28;20421;-75
2023/07/26 01:09:21;;;;;;;6.50;4.10;;;13.30;99.90;;;;;;4998631;28;20418;-75
2023/07/26 01:11:53;;;;;;;7.00;4.32;;;13.00;99.90;;;;;;5059462;28;20420;-75
2023/07/26 01:14:28;;;;;;;8.15;4.60;;;13.10;99.90;;;;;;5073347;28;20482;-75
2023/07/26 01:16:55;;;;;;;12.05;4.22;;;13.20;99.90;;;;;;5087514;28;20505;-75
2023/07/26 01:19:21;;;;;;;7.28;3.97;;;13.00;99.90;;;;;;5051022;28;20419;-75
2023/07/26 01:21:47;;;;;;;6.05;4.15;;;13.20;99.90;;;;;;5062924;28;20409;-75
2023/07/26 01:24:13;;;;;;;8.18;4.50;;;12.90;99.90;;;;;;5073553;28;20761;-75
2023/07/26 01:26:39;;;;;;;7.47;4.28;;;;;;;;;;5057079;28;20420;-75
2023/07/26 01:29:05;;;;;;;7.38;4.28;;;13.00;99.90;;;;;;5041243;28;20410;-75
2023/07/26 01:31:30;;;;;;;7.93;4.53;;;13.00;99.90;;;;;;5043318;28;20500;-75
2023/07/26 01:33:58;;;;;;;7.60;4.55;;;12.90;99.90;;;;;;5047934;28;20417;-75
2023/07/26 01:36:24;;;;;;;7.10;4.50;;;12.90;99.90;;;;;;5070584;28;20437;-75
2023/07/26 01:38:50;;;;;;;9.27;4.60;;;12.80;99.90;;;;;;5069463;28;20418;-75
2023/07/26 01:41:17;;;;;;;6.95;4.40;;;12.60;99.90;;;;;;5069187;28;20462;-75
2023/07/26 01:43:43;;;;;;;6.80;4.40;;;12.90;99.90;;;;;;5066608;28;20420;-75
2023/07/26 01:46:15;;;;;;;8.07;4.63;;;12.70;99.90;;;;;;5043047;28;20417;-75
2023/07/26 01:48:41;;;;;;;8.23;4.40;;;12.80;99.90;;;;;;5057310;28;20429;-75
2023/07/26 01:51:08;;;;;;;8.35;4.32;;;12.70;99.90;;;;;;5051208;28;20659;-75
2023/07/26 01:53:34;;;;;;;7.43;4.60;;;12.80;99.90;;;;;;5042130;28;20814;-74
2023/07/26 01:56:00;;;;;;;6.90;4.90;;;12.60;99.90;;;;;;5066728;28;20422;-74
2023/07/26 01:58:26;;;;;;;6.75;4.47;;;12.60;99.90;;;;;;5051736;28;20479;-74
2023/07/26 02:00:52;;;;;;;6.77;4.33;;;;;;;;;;5073873;28;20809;-74
2023/07/26 02:03:18;;;;;;;6.00;4.57;;;12.70;99.90;;;;;;5061082;28;20402;-74
2023/07/26 02:05:45;;;;;;;7.07;4.70;;;12.70;99.90;;;;;;5074145;28;20951;-75
2023/07/26 02:08:11;;;;;;;7.90;4.80;;;;;;;;;;5058338;28;20814;-75
2023/07/26 02:10:39;;;;;;;7.50;4.60;;;12.70;99.90;;;;;;5061472;28;20419;-75
2023/07/26 02:13:04;;;;;;;8.13;4.72;;;12.60;99.90;;;;;;5054110;28;20456;-74
2023/07/26 02:15:31;;;;;;;9.80;4.90;;;12.60;99.90;;;;;;5055685;28;20787;-73
2023/07/26 02:17:57;;;;;;;6.60;4.70;;;12.60;99.90;;;;;;5040093;28;20432;-75
2023/07/26 02:20:23;;;;;;;8.00;4.95;;;12.50;99.90;;;;;;5071882;28;20762;-75
2023/07/26 02:22:49;;;;;;;7.85;5.00;;;;;;;;;;5076883;28;20400;-74
2023/07/26 02:25:15;;;;;;;7.78;5.15;;;;;;;;;;5092606;28;20452;-74
2023/07/26 02:27:41;;;;;;;7.70;4.90;;;12.40;99.90;;;;;;5072050;28;20841;-74
2023/07/26 02:30:07;;;;;;;7.70;5.07;;;12.70;99.90;;;;;;5072758;28;20456;-74
2023/07/26 02:32:33;;;;;;;7.28;5.03;;;11.10;99.90;;;;;;5058849;28;20406;-75
2023/07/26 02:34:58;;;;;;;10.18;5.35;;;12.60;99.90;;;;;;5058044;28;20845;-75
2023/07/26 02:37:24;;;;;;;8.15;5.10;;;12.60;99.90;;;;;;5046251;28;20426;-75
2023/07/26 02:39:50;;;;;;;9.27;5.30;;;12.70;99.90;;;;;;5019890;28;20778;-75
2023/07/26 02:42:16;;;;;;;9.85;5.60;;;12.50;99.90;;;;;;5074513;28;20489;-75
2023/07/26 02:44:42;;;;;;;7.90;5.30;;;;;;;;;;5059400;28;20487;-75
2023/07/26 02:47:08;;;;;;;8.82;5.53;;;12.50;99.90;;;;;;5071021;28;20434;-74
2023/07/26 02:49:34;;;;;;;7.15;4.93;;;;;;;;;;5063573;28;20423;-74
2023/07/26 02:52:00;;;;;;;8.63;5.15;;;;;;;;;;5067017;28;20433;-75
2023/07/26 02:54:26;;;;;;;9.23;5.78;;;;;;;;;;5063000;28;20419;-75
2023/07/26 02:56:52;;;;;;;8.35;5.75;;;;;;;;;;5072672;28;20891;-75
2023/07/26 02:59:18;;;;;;;9.27;5.63;;;12.40;99.90;;;;;;5047113;28;20415;-75
2023/07/26 03:01:44;;;;;;;9.77;5.57;;;12.40;99.90;;;;;;5037440;28;20904;-75
2023/07/26 03:04:11;;;;;;;8.48;5.60;;;12.30;99.90;;;;;;5044728;28;20414;-75
2023/07/26 03:06:37;;;;;;;8.52;5.47;;;12.30;99.90;;;;;;5074923;28;20421;-75
2023/07/26 03:09:03;;;;;;;9.70;5.50;;;12.30;99.90;;;;;;5074005;28;21058;-75
2023/07/26 03:11:29;;;;;;;7.10;5.43;;;12.40;99.90;;;;;;5042500;28;20394;-75
2023/07/26 03:13:55;;;;;;;9.90;5.82;;;12.50;99.90;;;;;;5047046;28;20938;-75
2023/07/26 03:16:21;;;;;;;9.82;6.10;;;12.40;99.90;;;;;;5054671;28;20462;-76
2023/07/26 03:18:47;;;;;;;8.40;5.85;;;;;;;;;;5043681;28;20450;-76
2023/07/26 03:21:13;;;;;;;9.55;6.10;;;12.30;99.90;;;;;;5063164;28;20796;-77
2023/07/26 03:23:39;;;;;;;9.90;5.90;;;12.50;99.90;;;;;;5054466;28;20432;-77
2023/07/26 03:26:05;;;;;;;11.10;5.60;;;12.10;99.90;;;;;;5062438;28;20410;-76
2023/07/26 03:28:31;;;;;;;16.70;6.00;;;;;;;;;;5045102;28;20420;-76
2023/07/26 03:30:57;;;;;;;9.82;5.38;;;;;;;;;;5079144;28;20396;-77
2023/07/26 03:33:23;;;;;;;10.43;5.15;;;12.70;99.90;;;;;;5055396;28;20421;-76
2023/07/26 03:35:49;;;;;;;9.48;4.78;;;12.60;99.90;;;;;;5072859;28;20406;-76
2023/07/26 03:38:15;;;;;;;10.52;5.38;;;12.60;99.90;;;;;;5042383;28;20423;-76
2023/07/26 03:40:41;;;;;;;9.23;4.75;;;;;;;;;;5058133;28;20414;-76
2023/07/26 03:43:07;;;;;;;9.73;4.70;;;12.60;99.90;;;;;;5057256;28;20418;-76
2023/07/26 03:45:34;;;;;;;9.35;5.10;;;;;;;;;;5055834;28;20414;-77
2023/07/26 03:48:00;;;;;;;7.68;4.35;;;12.60;99.90;;;;;;5051608;28;20424;-76
2023/07/26 03:50:26;;;;;;;9.20;4.37;;;;;;;;;;5072450;28;20915;-76
2023/07/26 03:52:52;;;;;;;6.03;3.88;;;;;;;;;;5079410;28;20425;-76
2023/07/26 03:55:18;;;;;;;9.27;3.90;;;12.40;99.90;;;;;;5044078;28;20455;-76
2023/07/26 03:57:44;;;;;;;7.07;3.87;;;12.40;99.90;;;;;;5036594;28;20420;-76
2023/07/26 04:00:10;;;;;;;7.53;3.77;;;;;;;;;;5068451;28;20823;-76
2023/07/26 04:02:36;;;;;;;6.25;3.60;;;;;;;;;;5054233;28;20421;-76
2023/07/26 04:05:02;;;;;;;7.15;4.10;;;;;;;;;;5057751;28;20414;-76
2023/07/26 04:07:28;;;;;;;5.85;3.80;;;12.30;99.90;;;;;;5035755;28;20422;-74
2023/07/26 04:09:54;;;;;;;8.37;4.27;;;;;;;;;;5035385;28;20422;-75
2023/07/26 04:12:20;;;;;;;8.02;4.45;;;;;;;;;;5037707;28;20772;-76
2023/07/26 04:14:47;;;;;;;8.37;4.30;;;12.40;99.90;;;;;;5054875;28;20399;-76
2023/07/26 04:17:12;;;;;;;7.28;4.53;;;12.40;99.90;;;;;;5039754;28;20472;-76
2023/07/26 04:19:38;;;;;;;8.52;4.60;;;12.30;99.90;;;;;;5069612;28;20450;-77
2023/07/26 04:22:04;;;;;;;8.35;4.38;;;12.50;99.90;;;;;;5065311;28;20415;-76
2023/07/26 04:24:30;;;;;;;7.90;4.25;;;;;;;;;;5038214;28;20915;-76
2023/07/26 04:26:56;;;;;;;7.13;4.18;;;;;;;;;;5056202;28;20452;-76
2023/07/26 04:29:22;;;;;;;9.30;4.30;;;;;;;;;;5070872;28;20556;-76
2023/07/26 04:31:48;;;;;;;8.77;4.30;;;12.20;99.90;;;;;;5067292;28;20411;-76
2023/07/26 04:34:17;;;;;;;8.30;4.60;;;;;;;;;;5043626;28;20411;-77
2023/07/26 04:36:43;;;;;;;6.75;4.32;;;12.60;99.90;;;;;;5049691;28;20414;-79
2023/07/26 04:39:09;;;;;;;6.80;4.40;;;;;;;;;;5054310;28;20420;-78
2023/07/26 04:41:35;;;;;;;6.97;3.80;;;12.50;99.90;;;;;;5056482;28;20508;-79
2023/07/26 04:44:01;;;;;;;7.70;4.20;;;12.40;99.90;;;;;;5052103;28;20844;-78
2023/07/26 04:46:27;;;;;;;6.32;3.40;;;12.40;99.90;;;;;;5024759;28;20475;-79
2023/07/26 04:48:52;;;;;;;7.47;3.53;;;12.30;99.90;;;;;;5038647;28;20414;-78
2023/07/26 04:51:18;;;;;;;6.97;3.23;;;12.50;99.90;;;;;;5021886;28;20942;-79
2023/07/26 04:53:44;;;;;;;6.10;3.20;;;;;;;;;;5007760;28;20419;-78
2023/07/26 04:56:15;;;;;;;6.57;3.15;;;;;;;;;;5054043;28;20417;-79
2023/07/26 04:58:41;;;;;;;5.40;2.88;;;;;;;;;;5054544;28;20424;-79
2023/07/26 05:01:07;;;;;;;4.87;2.90;;;;;;;;;;5063291;28;20948;-78
2023/07/26 05:03:34;;;;;;;5.50;2.83;;;12.30;99.90;;;;;;5061049;28;20426;-79
2023/07/26 05:06:00;;;;;;;4.75;2.75;;;;;;;;;;5044413;28;20418;-79
2023/07/26 05:08:28;;;;;;;4.50;2.38;;;;;;;;;;5048205;28;20997;-79
2023/07/26 05:10:54;;;;;;;4.50;2.65;;;12.70;99.90;;;;;;5045156;28;20430;-78
2023/07/26 05:13:20;;;;;;;6.43;2.88;;;12.60;99.90;;;;;;5050476;28;20414;-79
2023/07/26 05:15:46;;;;;;;4.85;2.53;;;12.70;99.90;;;;;;5054174;28;20421;-79
2023/07/26 05:18:14;;;;;;;5.20;2.42;;;;;;;;;;5069828;28;20432;-79
2023/07/26 05:20:41;;;;;;;4.57;2.63;;;;;;;;;;5051960;28;20942;-79
2023/07/26 05:23:07;;;;;;;6.60;2.80;;;;;;;;;;5050761;28;20499;-79
2023/07/26 05:25:33;;;;;;;5.95;2.67;;;12.70;99.90;;;;;;5056969;28;20409;-79
2023/07/26 05:27:59;;;;;;;4.60;2.53;;;13.20;99.90;;;;;;5053371;28;20422;-78
2023/07/26 05:30:25;;;;;;;4.72;2.80;;;12.70;99.90;;;;;;5032458;28;20477;-78
2023/07/26 05:32:51;;;;;;;4.38;2.70;;;;;;;;;;5050698;28;20426;-77
2023/07/26 05:35:17;;;;;;;5.05;2.60;;;12.90;99.90;;;;;;5057815;28;20962;-78
2023/07/26 05:37:43;;;;;;;5.00;2.88;;;;;;;;;;5040904;28;20420;-79
2023/07/26 05:40:09;;;;;;;6.60;2.90;;;13.00;99.90;;;;;;5051035;28;20460;-78
2023/07/26 05:42:36;;;;;;;6.60;3.10;;;12.80;99.90;;;;;;5039732;28;20420;-77
2023/07/26 05:45:02;;;;;;;5.57;2.78;;;12.90;99.90;;;;;;5053246;28;20432;-78
2023/07/26 05:47:28;;;;;;;5.00;2.88;;;13.30;99.90;;;;;;5058786;28;20424;-77
2023/07/26 05:49:54;;;;;;;6.63;3.58;;;13.10;99.90;;;;;;5058974;28;20408;-77
2023/07/26 05:52:20;;;;;;;4.75;2.90;;;;;;;;;;5060539;28;20500;-77
2023/07/26 05:54:46;;;;;;;5.28;3.03;;;;;;;;;;5070845;28;20450;-79
2023/07/26 05:57:12;;;;;;;5.03;2.67;;;;;;;;;;5052197;28;20568;-78
2023/07/26 05:59:38;;;;;;;5.38;3.10;;;;;;;;;;5049161;28;20423;-78
2023/07/26 06:02:05;;;;;;;6.45;3.15;;;13.20;99.90;;;;;;5053063;28;20420;-78
2023/07/26 06:04:31;;;;;;;7.35;3.53;;;;;;;;;;5020738;28;20415;-76
2023/07/26 06:06:57;;;;;;;6.00;3.60;;;;;;;;;;5057371;28;20454;-76
2023/07/26 06:09:25;;;;;;;5.38;3.65;;;13.40;99.90;;;;;;5077947;28;20877;-76
2023/07/26 06:11:51;;;;;;;5.22;3.70;;;;;;;;;;5058399;28;20421;-77
2023/07/26 06:14:18;;;;;;;6.73;3.73;;;;;;;;;;5072908;28;20429;-78
2023/07/26 06:16:44;;;;;;;8.00;4.25;;;13.40;99.90;;;;;;5048467;28;20413;-78
2023/07/26 06:19:10;;;;;;;6.43;3.78;;;;;;;;;;5059566;28;20417;-77
2023/07/26 06:21:35;;;;;;;8.75;4.20;;;13.40;99.90;;;;;;5069752;28;20770;-78
2023/07/26 06:24:02;;;;;;;6.30;3.60;;;;;;;;;;5035979;28;20424;-80
2023/07/26 06:26:27;;;;;;;11.03;4.13;;;13.20;99.90;;;;;;5044218;28;20499;-79
2023/07/26 06:28:53;;;;;;;7.30;3.87;;;13.30;99.90;;;;;;5069108;28;20414;-80
2023/07/26 06:31:20;;;;;;;8.03;4.17;;;;;;;;;;5015303;28;20980;-79
2023/07/26 06:33:46;;;;;;;9.45;4.68;;;13.20;99.90;;;;;;5044746;28;20413;-79
2023/07/26 06:36:12;;;;;;;10.33;4.60;;;;;;;;;;5074276;28;20447;-78
2023/07/26 06:38:37;;;;;;;10.20;5.10;;;13.30;99.90;;;;;;5073474;28;20445;-78
2023/07/26 06:41:04;;;;;;;8.40;4.90;;;13.20;99.90;;;;;;5075273;28;20405;-78
2023/07/26 06:43:30;;;;;;;7.75;4.00;;;;;;;;;;5017963;28;20762;-78
2023/07/26 06:45:56;;;;;;;9.30;4.50;;;;;;;;;;5064236;28;20415;-78
2023/07/26 06:48:22;;;;;;;8.50;5.03;;;;;;;;;;5043750;28;20432;-79
2023/07/26 06:50:49;;;;;;;9.23;4.50;;;;;;;;;;5053720;28;20510;-80
2023/07/26 06:53:14;;;;;;;8.23;3.90;;;13.00;99.90;;;;;;5052268;28;20413;-79
2023/07/26 06:55:40;;;;;;;8.87;3.70;;;13.10;99.90;;;;;;5039158;28;20520;-79
2023/07/26 06:58:06;;;;;;;6.60;3.80;;;;;;;;;;5065722;28;20795;-79
2023/07/26 07:00:32;;;;;;;7.70;3.67;;;;;;;;;;5056678;28;20415;-80
2023/07/26 07:03:00;;;;;;;6.43;3.70;;;13.00;99.90;;;;;;5046177;28;20422;-78
2023/07/26 07:05:31;;;;;;;6.00;3.10;;;;;;;;;;5049959;28;20559;-78
2023/07/26 07:07:57;;;;;;;6.30;3.05;;;;;;;;;;5049806;28;20862;-78
2023/07/26 07:10:23;;;;;;;8.38;3.40;;;13.00;99.90;;;;;;5061022;28;20507;-78
2023/07/26 07:12:49;;;;;;;6.33;3.40;;;;;;;;;;5052208;28;20415;-78
2023/07/26 07:15:16;;;;;;;6.35;3.60;;;;;;;;;;5067333;28;20419;-78
2023/07/26 07:17:41;;;;;;;6.37;3.73;;;13.10;99.90;;;;;;5050726;28;20432;-77
2023/07/26 07:20:08;;;;;;;7.37;4.00;;;;;;;;;;5032710;28;20834;-78
2023/07/26 07:22:37;;;;;;;6.88;4.38;;;13.40;99.90;;;;;;5058705;28;20514;-77
2023/07/26 07:25:03;;;;;;;8.18;4.50;;;;;;;;;;5057876;28;20505;-78
2023/07/26 07:27:29;;;;;;;8.02;4.55;;;13.20;99.90;;;;;;5061235;28;20895;-77
2023/07/26 07:29:55;;;;;;;10.32;5.13;;;13.30;99.90;;;;;;5067226;28;20424;-78
2023/07/26 07:32:21;;;;;;;8.10;5.05;;;13.30;99.90;;;;;;5037696;28;20423;-78
2023/07/26 07:34:47;;;;;;;9.65;5.50;;;;;;;;;;5034915;28;20428;-78
2023/07/26 07:37:13;;;;;;;7.47;5.30;;;13.60;99.90;;;;;;5049955;28;20418;-79
2023/07/26 07:39:38;;;;;;;9.57;5.60;;;13.60;99.90;;;;;;5040963;28;20436;-80
2023/07/26 07:42:05;;;;;;;9.05;5.10;;;;;;;;;;5070154;28;20414;-80
2023/07/26 07:44:31;;;;;;;6.70;4.25;;;13.80;99.90;;;;;;5050645;28;20411;-80
2023/07/26 07:46:57;;;;;;;8.50;4.70;;;13.90;99.90;;;;;;5043272;28;20422;-80
2023/07/26 07:49:23;;;;;;;6.80;3.90;;;13.90;99.90;;;;;;5046472;28;21478;-79
2023/07/26 07:51:49;;;;;;;4.75;2.95;;;13.70;99.90;;;;;;5055542;28;20800;-80
2023/07/26 07:54:15;;;;;;;4.73;3.17;;;14.10;99.90;;;;;;5045434;28;20763;-79
2023/07/26 07:56:41;;;;;;;5.43;3.38;;;14.00;99.90;;;;;;5069358;28;20427;-79
2023/07/26 07:59:07;;;;;;;4.43;3.00;;;13.70;99.90;;;;;;5051111;28;20414;-79
2023/07/26 08:01:33;;;;;;;5.20;3.50;;;14.00;99.90;;;;;;5069368;28;20507;-80
2023/07/26 08:03:59;;;;;;;5.90;3.28;;;14.10;99.90;;;;;;5052888;28;20420;-79
2023/07/26 08:06:26;;;;;;;5.85;3.30;;;14.30;99.90;;;;;;5069523;28;20985;-80
2023/07/26 08:08:52;;;;;;;5.72;3.33;;;14.60;99.90;;;;;;5064394;28;20454;-79
2023/07/26 08:11:18;;;;;;;5.45;3.55;;;14.60;99.90;;;;;;5045694;28;20492;-79
2023/07/26 08:13:44;;;;;;;4.75;3.08;;;14.50;99.90;;;;;;5030369;28;20430;-79
2023/07/26 08:16:10;;;;;;;6.30;3.40;;;14.70;99.90;;;;;;5048973;28;20420;-79
2023/07/26 08:18:37;;;;;;;6.17;3.30;;;14.90;99.90;;;;;;5064672;28;20425;-78
2023/07/26 08:21:04;;;;;;;4.68;3.10;;;15.30;99.90;;;;;;5049871;28;20424;-78
2023/07/26 08:23:30;;;;;;;5.60;3.42;;;15.50;99.90;;;;;;5064260;28;20812;-79
2023/07/26 08:26:02;;;;;;;5.85;3.70;;;15.80;99.90;;;;;;5040519;28;20467;-78
2023/07/26 08:28:27;;;;;;;4.75;3.40;;;15.90;99.90;;;;;;5033964;28;20415;-78
2023/07/26 08:30:53;;;;;;;6.23;4.50;;;16.30;99.90;;;;;;5030478;28;20425;-79
2023/07/26 08:33:19;;;;;;;7.10;4.43;;;16.10;99.90;;;;;;5050390;28;20468;-80
2023/07/26 08:35:45;;;;;;;5.23;4.13;;;16.50;99.90;;;;;;5073422;28;20425;-80
2023/07/26 08:38:10;;;;;;;6.75;3.85;;;16.60;99.90;;;;;;5073370;28;20457;-80
2023/07/26 08:40:36;;;;;;;5.93;4.22;;;16.20;99.90;;;;;;5056813;28;20473;-80
2023/07/26 08:43:05;;;;;;;6.82;4.20;;;16.70;99.90;;;;;;5018334;28;20416;-79
2023/07/26 08:45:32;;;;;;;5.85;4.22;;;16.40;99.90;;;;;;5047926;28;20423;-78
2023/07/26 08:47:59;;;;;;;8.27;4.70;;;16.50;99.90;;;;;;5053746;28;20593;-80
2023/07/26 08:50:25;;;;;;;6.60;4.20;;;16.00;99.90;;;;;;5070109;28;20497;-79
2023/07/26 08:52:52;;;;;;;7.30;4.03;;;16.20;99.90;;;;;;5050960;28;20422;-80
2023/07/26 08:55:21;;;;;;;7.50;4.50;;;16.40;99.90;;;;;;5032526;28;21132;-81
2023/07/26 08:57:47;;;;;;;6.95;4.72;;;16.40;99.90;;;;;;5052767;28;20475;-80
2023/07/26 09:00:14;;;;;;;6.72;4.70;;;16.10;99.90;;;;;;5050431;28;20407;-81
2023/07/26 09:02:43;;;;;;;6.65;4.45;;;16.20;99.90;;;;;;5032331;28;20403;-80
2023/07/26 09:05:10;;;;;;;5.40;4.05;;;16.30;99.90;;;;;;5037268;28;20984;-81
2023/07/26 09:07:39;;;;;;;5.85;3.88;;;16.70;99.90;;;;;;5033199;28;20472;-81
2023/07/26 09:10:05;;;;;;;8.00;3.80;;;16.90;99.90;;;;;;5048554;28;20923;-81
2023/07/26 09:12:31;;;;;;;4.82;3.40;;;17.20;99.90;;;;;;5006675;28;20433;-80
2023/07/26 09:14:58;;;;;;;5.00;3.47;;;17.10;99.90;;;;;;5062952;28;20424;-78
2023/07/26 09:17:43;;;;;;;5.65;3.30;;;17.20;99.90;;;;;;5048347;28;20798;-79
2023/07/26 09:20:26;;;;;;;4.93;3.10;;;17.50;99.90;;;;;;5061445;28;21289;-80
2023/07/26 09:23:18;;;;;;;12.13;4.53;;;18.00;99.90;;;;;;5047504;28;20727;-79
2023/07/26 09:25:45;;;;;;;4.78;3.03;;;17.50;99.90;;;;;;5014635;28;20481;-80
2023/07/26 09:28:18;;;;;;;5.43;3.25;;;17.00;99.90;;;;;;5041605;28;20905;-80
2023/07/26 09:30:45;;;;;;;5.88;3.38;;;16.60;99.90;;;;;;5036962;28;20768;-80
2023/07/26 09:33:12;;;;;;;4.90;3.28;;;16.20;99.90;;;;;;5063496;28;20423;-81
2023/07/26 09:35:46;;;;;;;6.15;3.47;;;16.20;99.90;;;;;;5053229;28;20413;-80
2023/07/26 09:38:26;;;;;;;5.53;3.45;;;16.40;99.90;;;;;;5039742;28;20426;-80
2023/07/26 09:40:51;;;;;;;4.80;2.53;;;16.70;99.90;;;;;;5027801;28;20472;-80
2023/07/26 09:43:32;;;;;;;3.95;2.50;;;16.70;99.90;;;;;;5008924;28;20822;-81
2023/07/26 09:46:07;;;;;;;4.72;2.67;;;15.50;99.90;;;;;;5034212;28;20419;-81
2023/07/26 09:48:33;;;;;;;4.43;2.88;;;17.60;99.90;;;;;;5029640;28;20458;-79
2023/07/26 09:51:04;;;;;;;4.78;2.75;;;17.40;99.90;;;;;;5028770;28;20947;-80
2023/07/26 09:53:32;;;;;;;4.65;2.70;;;17.50;99.90;;;;;;5050897;28;20499;-79
2023/07/26 09:55:58;;;;;;;4.55;2.80;;;17.50;99.90;;;;;;5047665;28;20438;-80
2023/07/26 09:58:30;;;;;;;5.72;2.90;;;17.60;99.90;;;;;;5051830;28;20509;-80
2023/07/26 10:01:01;;;;;;;4.78;2.30;;;17.90;99.90;;;;;;5035781;28;20502;-80
2023/07/26 10:03:33;;;;;;;4.72;2.30;;;18.20;99.90;;;;;;5046032;28;20418;-80
2023/07/26 10:06:01;;;;;;;3.95;2.55;;;18.30;99.90;;;;;;5048054;28;20905;-80
2023/07/26 10:08:27;;;;;;;3.22;2.13;;;18.20;99.90;;;;;;5044005;28;20518;-80
2023/07/26 10:10:55;;;;;;;3.50;2.35;;;18.00;99.90;;;;;;5020585;28;20399;-80
2023/07/26 10:13:23;;;;;;;4.13;2.33;;;18.20;99.90;;;;;;5055535;28;20470;-80
2023/07/26 10:15:53;;;;;;;3.90;2.50;;;18.40;99.90;;;;;;5053267;28;20421;-80
2023/07/26 10:18:22;;;;;;;4.18;2.30;;;18.40;99.90;;;;;;5056321;28;20497;-81
2023/07/26 10:20:49;;;;;;;3.55;2.30;;;18.30;99.90;;;;;;5053954;28;20432;-80
2023/07/26 10:23:16;;;;;;;3.95;2.42;;;18.70;99.90;;;;;;5055981;28;20432;-80
2023/07/26 10:25:45;;;;;;;5.78;2.60;;;18.70;99.90;;;;;;5048215;28;20414;-80
2023/07/26 10:28:13;;;;;;;3.80;2.10;;;18.50;99.90;;;;;;5064934;28;20500;-80
2023/07/26 10:30:39;;;;;;;4.32;2.30;;;18.90;99.90;;;;;;5032650;28;20458;-80
2023/07/26 10:33:12;;;;;;;4.97;2.30;;;19.10;99.90;;;;;;5066766;28;20423;-79
2023/07/26 10:35:42;;;;;;;3.03;1.92;;;19.20;99.90;;;;;;5068287;28;20420;-79
2023/07/26 10:38:08;;;;;;;4.22;1.95;;;19.20;99.90;;;;;;5064391;28;20421;-79
2023/07/26 10:40:36;;;;;;;4.82;2.50;;;18.90;99.90;;;;;;5062047;28;20423;-79
2023/07/26 10:43:20;;;;;;;3.28;2.20;;;19.00;99.90;;;;;;5051087;28;20426;-80
2023/07/26 10:45:48;;;;;;;3.90;2.08;;;18.90;99.90;;;;;;5067370;28;20414;-79
2023/07/26 10:48:26;;;;;;;4.38;2.00;;;19.10;99.90;;;;;;5070499;28;20470;-80
2023/07/26 10:50:56;;;;;;;3.25;2.10;;;18.80;99.90;;;;;;5054387;28;20559;-79
2023/07/26 10:53:29;;;;;;;3.30;1.85;;;18.50;99.90;;;;;;5059021;28;20402;-79
2023/07/26 10:56:08;;;;;;;4.20;2.20;;;18.50;99.90;;;;;;5064861;28;20501;-79
2023/07/26 10:58:34;;;;;;;3.90;2.33;;;18.50;99.90;;;;;;5076914;28;20484;-78
2023/07/26 11:01:02;;;;;;;3.78;2.15;;;18.50;99.90;;;;;;5065285;28;20943;-78
2023/07/26 11:03:28;;;;;;;4.75;2.03;;;18.90;99.90;;;;;;5042996;28;20481;-78
2023/07/26 11:05:56;;;;;;;3.30;1.92;;;19.20;99.90;;;;;;5068494;28;20522;-78
2023/07/26 11:08:40;;;;;;;3.85;1.83;;;19.90;99.90;;;;;;5052465;28;20427;-80
2023/07/26 11:11:09;;;;;;;3.47;1.83;;;19.50;99.90;;;;;;5054252;28;20423;-79
2023/07/26 11:13:34;;;;;;;3.50;1.92;;;19.70;99.90;;;;;;5054006;28;20797;-82
2023/07/26 11:16:03;;;;;;;3.25;1.80;;;20.20;99.90;;;;;;5049150;28;20429;-79
2023/07/26 11:18:29;;;;;;;4.60;1.85;;;20.30;99.90;;;;;;5059364;28;20777;-80
2023/07/26 11:20:55;;;;;;;3.77;2.13;;;20.40;99.90;;;;;;5036660;28;20433;-80
2023/07/26 11:23:28;;;;;;;3.90;2.50;;;20.50;99.90;;;;;;5043640;28;20422;-80
2023/07/26 11:26:00;;;;;;;4.93;2.30;;;20.20;99.90;;;;;;5070546;28;20761;-79
2023/07/26 11:28:33;;;;;;;4.15;2.22;;;20.00;99.90;;;;;;5051956;28;20778;-79
2023/07/26 11:31:00;;;;;;;4.55;2.45;;;19.80;99.90;;;;;;5052025;28;20422;-79
2023/07/26 11:33:36;;;;;;;5.07;2.00;;;19.80;99.90;;;;;;5072142;28;20433;-79
2023/07/26 11:36:05;;;;;;;5.35;2.40;;;20.10;99.90;;;;;;5066039;28;20423;-79
2023/07/26 11:38:31;;;;;;;3.72;1.85;;;20.30;99.90;;;;;;5052323;28;20770;-79
2023/07/26 11:40:59;;;;;;;4.07;1.88;;;19.80;99.90;;;;;;5072898;28;20422;-79
2023/07/26 11:43:28;;;;;;;3.60;1.70;;;19.80;99.90;;;;;;5071084;28;20425;-80
2023/07/26 11:45:55;;;;;;;3.72;2.03;;;19.50;99.90;;;;;;5039089;28;20407;-80
2023/07/26 11:48:22;;;;;;;3.75;1.90;;;19.40;99.90;;;;;;5035098;28;20464;-80
2023/07/26 11:50:47;;;;;;;4.33;2.03;;;19.60;99.90;;;;;;5078133;28;20422;-79
2023/07/26 11:53:15;;;;;;;4.07;1.97;;;19.70;99.90;;;;;;5025311;28;20778;-78
2023/07/26 11:55:44;;;;;;;7.53;2.58;;;19.60;99.90;;;;;;5057844;28;20413;-80
2023/07/26 11:58:11;;;;;;;11.05;2.75;;;19.30;99.90;;;;;;5046515;28;20516;-82
2023/07/26 12:00:41;;;;;;;6.05;3.00;;;18.70;99.90;;;;;;5072814;28;20514;-79
2023/07/26 12:03:07;;;;;;;7.72;3.20;;;17.20;99.90;;;;;;5040512;28;20702;-78
2023/07/26 12:05:33;;;;;;;5.95;3.30;;;16.60;99.90;;;;;;5038526;28;20510;-78
2023/07/26 12:08:03;;;;;;;10.02;3.42;;;16.40;99.90;;;;;;5054007;28;20416;-81
2023/07/26 12:10:35;;;;;;;18.25;4.10;;;16.00;99.90;;;;;;5063722;28;20553;-80
2023/07/26 12:13:08;;;;;;;6.28;2.80;;;16.20;99.90;;;;;;5055527;28;20434;-79
2023/07/26 12:15:55;;;;;;;5.75;3.20;;;16.10;99.90;;;;;;5074798;28;20505;-78
2023/07/26 12:18:22;;;;;;;7.15;3.78;;;16.00;99.90;;;;;;5062750;28;20484;-79
2023/07/26 12:20:56;;;;;;;7.50;3.85;;;16.00;99.90;;;;;;5048704;28;20431;-79
2023/07/26 12:23:22;;;;;;;7.43;3.30;;;16.60;99.90;;;;;;5044194;28;20416;-79
2023/07/26 12:25:52;;;;;;;6.32;3.70;;;16.70;99.90;;;;;;5047270;28;20416;-80
2023/07/26 12:28:18;;;;;;;7.23;3.40;;;16.80;99.90;;;;;;5050429;28;20472;-79
2023/07/26 12:30:58;;;;;;;6.13;3.30;;;16.80;99.90;;;;;;5067473;28;20417;-80
2023/07/26 12:33:26;;;;;;;5.00;3.00;;;17.40;99.90;;;;;;5045937;28;20425;-79
2023/07/26 12:35:55;;;;;;;5.75;2.92;;;17.70;99.90;;;;;;5062013;28;20451;-79
2023/07/26 12:38:22;;;;;;;6.63;3.42;;;17.50;99.90;;;;;;5070229;28;20454;-79
2023/07/26 12:40:49;;;;;;;4.40;2.40;;;17.90;99.90;;;;;;5050600;28;20426;-78
2023/07/26 12:43:28;;;;;;;3.80;2.20;;;18.20;99.90;;;;;;5055619;28;20427;-77
2023/07/26 12:45:55;;;;;;;5.88;2.55;;;17.80;99.90;;;;;;5051963;28;20423;-78
2023/07/26 12:48:22;;;;;;;5.95;2.33;;;17.90;99.90;;;;;;5045802;28;20945;-78
2023/07/26 12:50:53;;;;;;;5.53;2.50;;;17.70;99.90;;;;;;5066780;28;20450;-78
2023/07/26 12:53:23;;;;;;;3.83;2.03;;;18.20;99.90;;;;;;5055218;28;20601;-78
2023/07/26 12:55:50;;;;;;;4.47;2.00;;;18.20;99.90;;;;;;5066779;28;20419;-77
2023/07/26 12:58:16;;;;;;;3.10;2.00;;;18.40;99.90;;;;;;5077230;28;20464;-79
2023/07/26 13:00:43;;;;;;;6.22;2.00;;;18.80;99.90;;;;;;5057189;28;20904;-79
2023/07/26 13:03:09;;;;;;;5.03;2.00;;;19.00;99.90;;;;;;5062609;28;20491;-79
2023/07/26 13:05:34;;;;;;;4.45;2.00;;;19.30;99.90;;;;;;5054159;28;20929;-79
2023/07/26 13:08:01;;;;;;;5.47;2.22;;;18.80;99.90;;;;;;5056571;28;21898;-79